sensor_id;sensor_type;location;lat;lon;timestamp;temperature;humidity
4058;DHT22;2044;48.692;9.020;2023-03-08T00:01:10;2.50;99.90
4058;DHT22;2044;48.692;9.020;2023-03-08T00:03:37;2.40;99.90
4058;DHT22;2044;48.692;9.020;2023-03-08T00:06:07;2.40;99.90
4058;DHT22;2044;48.692;9.020;2023-03-08T00:08:34;2.40;99.90
4058;DHT22;2044;48.692;9.020;2023-03-08T00:11:04;2.40;99.90
4058;DHT22;2044;48.692;9.020;2023-03-08T00:13:31;2.40;99.90
4058;DHT22;2044;48.692;9.020;2023-03-08T00:15:58;2.40;99.90
4058;DHT22;2044;48.692;9.020;2023-03-08T00:18:25;2.40;99.90
4058;DHT22;2044;48.692;9.020;2023-03-08T00:20:58;2.50;99.90
4058;DHT22;2044;48.692;9.020;2023-03-08T00:23:26;2.40;99.90
4058;DHT22;2044;48.692;9.020;2023-03-08T00:25:53;2.40;99.90
4058;DHT22;2044;48.692;9.020;2023-03-08T00:28:20;2.30;99.90
4058;DHT22;2044;48.692;9.020;2023-03-08T00:30:54;2.30;99.90
4058;DHT22;2044;48.692;9.020;2023-03-08T00:33:20;2.20;99.90
4058;DHT22;2044;48.692;9.020;2023-03-08T00:35:54;2.20;99.90
4058;DHT22;2044;48.692;9.020;2023-03-08T00:38:21;2.20;99.90
4058;DHT22;2044;48.692;9.020;2023-03-08T00:40:49;2.00;99.90
4058;DHT22;2044;48.692;9.020;2023-03-08T00:43:16;2.00;99.90
4058;DHT22;2044;48.692;9.020;2023-03-08T00:45:42;1.90;1.00
4058;DHT22;2044;48.692;9.020;2023-03-08T00:48:09;1.90;99.90
4058;DHT22;2044;48.692;9.020;2023-03-08T00:50:36;1.80;99.90
4058;DHT22;2044;48.692;9.020;2023-03-08T00:53:03;1.80;99.90
4058;DHT22;2044;48.692;9.020;2023-03-08T00:55:29;1.70;99.90
4058;DHT22;2044;48.692;9.020;2023-03-08T00:57:57;1.70;99.90
4058;DHT22;2044;48.692;9.020;2023-03-08T01:00:24;1.70;99.90
4058;DHT22;2044;48.692;9.020;2023-03-08T01:02:51;1.60;99.90
4058;DHT22;2044;48.692;9.020;2023-03-08T01:05:17;1.60;99.90
4058;DHT22;2044;48.692;9.020;2023-03-08T01:07:44;1.70;99.90
4058;DHT22;2044;48.692;9.020;2023-03-08T01:10:11;1.80;99.90
4058;DHT22;2044;48.692;9.020;2023-03-08T01:12:38;1.70;99.90
4058;DHT22;2044;48.692;9.020;2023-03-08T01:15:07;1.70;99.90
4058;DHT22;2044;48.692;9.020;2023-03-08T01:17:34;1.60;99.90
4058;DHT22;2044;48.692;9.020;2023-03-08T01:20:00;1.60;99.90
4058;DHT22;2044;48.692;9.020;2023-03-08T01:22:29;1.60;99.90
4058;DHT22;2044;48.692;9.020;2023-03-08T01:24:56;1.50;99.90
4058;DHT22;2044;48.692;9.020;2023-03-08T01:27:22;1.50;99.90
4058;DHT22;2044;48.692;9.020;2023-03-08T01:29:49;1.40;99.90
4058;DHT22;2044;48.692;9.020;2023-03-08T01:32:17;1.40;99.90
4058;DHT22;2044;48.692;9.020;2023-03-08T01:34:44;1.40;99.90
4058;DHT22;2044;48.692;9.020;2023-03-08T01:37:10;1.30;99.90
4058;DHT22;2044;48.692;9.020;2023-03-08T01:39:37;1.40;99.90
4058;DHT22;2044;48.692;9.020;2023-03-08T01:42:05;1.40;99.90
4058;DHT22;2044;48.692;9.020;2023-03-08T01:44:48;1.30;99.90
4058;DHT22;2044;48.692;9.020;2023-03-08T01:47:18;1.40;99.90
4058;DHT22;2044;48.692;9.020;2023-03-08T01:49:45;1.40;99.90
4058;DHT22;2044;48.692;9.020;2023-03-08T01:52:14;1.20;99.90
4058;DHT22;2044;48.692;9.020;2023-03-08T01:54:45;1.10;99.90
4058;DHT22;2044;48.692;9.020;2023-03-08T01:57:16;1.10;99.90
4058;DHT22;2044;48.692;9.020;2023-03-08T01:59:46;1.10;99.90
4058;DHT22;2044;48.692;9.020;2023-03-08T02:02:13;1.00;99.90
4058;DHT22;2044;48.692;9.020;2023-03-08T02:04:43;0.90;99.90
4058;DHT22;2044;48.692;9.020;2023-03-08T02:07:09;0.80;99.90
4058;DHT22;2044;48.692;9.020;2023-03-08T02:09:36;0.60;99.90
4058;DHT22;2044;48.692;9.020;2023-03-08T02:12:06;0.60;99.90
4058;DHT22;2044;48.692;9.020;2023-03-08T02:14:34;0.60;99.90
4058;DHT22;2044;48.692;9.020;2023-03-08T02:17:01;0.60;99.90
4058;DHT22;2044;48.692;9.020;2023-03-08T02:19:33;0.60;99.90
4058;DHT22;2044;48.692;9.020;2023-03-08T02:22:08;0.80;99.90
4058;DHT22;2044;48.692;9.020;2023-03-08T02:24:36;0.80;99.90
4058;DHT22;2044;48.692;9.020;2023-03-08T02:27:06;0.90;99.90
4058;DHT22;2044;48.692;9.020;2023-03-08T02:29:33;0.80;99.90
4058;DHT22;2044;48.692;9.020;2023-03-08T02:32:00;0.80;99.90
4058;DHT22;2044;48.692;9.020;2023-03-08T02:34:26;0.80;99.90
4058;DHT22;2044;48.692;9.020;2023-03-08T02:36:53;1.00;99.90
4058;DHT22;2044;48.692;9.020;2023-03-08T02:39:20;1.00;99.90
4058;DHT22;2044;48.692;9.020;2023-03-08T02:41:48;1.10;99.90
4058;DHT22;2044;48.692;9.020;2023-03-08T02:44:15;1.20;99.90
4058;DHT22;2044;48.692;9.020;2023-03-08T02:46:41;1.20;99.90
4058;DHT22;2044;48.692;9.020;2023-03-08T02:49:08;1.20;99.90
4058;DHT22;2044;48.692;9.020;2023-03-08T02:51:35;1.20;99.90
4058;DHT22;2044;48.692;9.020;2023-03-08T02:54:01;1.30;99.90
4058;DHT22;2044;48.692;9.020;2023-03-08T02:56:28;1.30;99.90
4058;DHT22;2044;48.692;9.020;2023-03-08T02:58:56;1.30;99.90
4058;DHT22;2044;48.692;9.020;2023-03-08T03:01:23;1.40;99.90
4058;DHT22;2044;48.692;9.020;2023-03-08T03:03:52;1.40;99.90
4058;DHT22;2044;48.692;9.020;2023-03-08T03:06:19;1.50;99.90
4058;DHT22;2044;48.692;9.020;2023-03-08T03:08:46;1.50;99.90
4058;DHT22;2044;48.692;9.020;2023-03-08T03:11:14;1.50;99.90
4058;DHT22;2044;48.692;9.020;2023-03-08T03:13:41;1.50;99.90
4058;DHT22;2044;48.692;9.020;2023-03-08T03:16:11;1.50;99.90
4058;DHT22;2044;48.692;9.020;2023-03-08T03:18:37;1.50;99.90
4058;DHT22;2044;48.692;9.020;2023-03-08T03:21:06;1.50;99.90
4058;DHT22;2044;48.692;9.020;2023-03-08T03:23:33;1.50;99.90
4058;DHT22;2044;48.692;9.020;2023-03-08T03:26:03;1.40;99.90
4058;DHT22;2044;48.692;9.020;2023-03-08T03:28:30;1.40;99.90
4058;DHT22;2044;48.692;9.020;2023-03-08T03:30:58;1.40;99.90
4058;DHT22;2044;48.692;9.020;2023-03-08T03:33:26;1.40;99.90
4058;DHT22;2044;48.692;9.020;2023-03-08T03:35:53;1.40;99.90
4058;DHT22;2044;48.692;9.020;2023-03-08T03:38:20;1.40;99.90
4058;DHT22;2044;48.692;9.020;2023-03-08T03:40:46;1.40;99.90
4058;DHT22;2044;48.692;9.020;2023-03-08T03:43:13;1.30;99.90
4058;DHT22;2044;48.692;9.020;2023-03-08T03:45:40;1.30;99.90
4058;DHT22;2044;48.692;9.020;2023-03-08T03:48:06;1.20;99.90
4058;DHT22;2044;48.692;9.020;2023-03-08T03:50:34;1.20;99.90
4058;DHT22;2044;48.692;9.020;2023-03-08T03:53:01;1.10;99.90
4058;DHT22;2044;48.692;9.020;2023-03-08T03:55:28;1.10;99.90
4058;DHT22;2044;48.692;9.020;2023-03-08T03:57:54;1.10;99.90
4058;DHT22;2044;48.692;9.020;2023-03-08T04:00:21;1.00;99.90
4058;DHT22;2044;48.692;9.020;2023-03-08T04:02:48;0.90;99.90
4058;DHT22;2044;48.692;9.020;2023-03-08T04:05:15;0.80;99.90
4058;DHT22;2044;48.692;9.020;2023-03-08T04:07:43;0.90;99.90
4058;DHT22;2044;48.692;9.020;2023-03-08T04:10:10;0.90;99.90
4058;DHT22;2044;48.692;9.020;2023-03-08T04:12:37;0.90;99.90
4058;DHT22;2044;48.692;9.020;2023-03-08T04:15:05;0.90;99.90
4058;DHT22;2044;48.692;9.020;2023-03-08T04:17:32;0.80;99.90
4058;DHT22;2044;48.692;9.020;2023-03-08T04:19:59;0.90;99.90
4058;DHT22;2044;48.692;9.020;2023-03-08T04:22:25;0.80;99.90
4058;DHT22;2044;48.692;9.020;2023-03-08T04:24:53;0.80;99.90
4058;DHT22;2044;48.692;9.020;2023-03-08T04:27:20;0.80;99.90
4058;DHT22;2044;48.692;9.020;2023-03-08T04:29:47;0.80;99.90
4058;DHT22;2044;48.692;9.020;2023-03-08T04:32:14;0.90;99.90
4058;DHT22;2044;48.692;9.020;2023-03-08T04:34:40;0.90;99.90
4058;DHT22;2044;48.692;9.020;2023-03-08T04:37:08;0.90;99.90
4058;DHT22;2044;48.692;9.020;2023-03-08T04:39:36;1.00;99.90
4058;DHT22;2044;48.692;9.020;2023-03-08T04:42:04;1.00;99.90
4058;DHT22;2044;48.692;9.020;2023-03-08T04:44:31;1.00;99.90
4058;DHT22;2044;48.692;9.020;2023-03-08T04:46:58;1.10;99.90
4058;DHT22;2044;48.692;9.020;2023-03-08T04:49:25;1.10;99.90
4058;DHT22;2044;48.692;9.020;2023-03-08T04:51:52;1.10;99.90
4058;DHT22;2044;48.692;9.020;2023-03-08T04:54:19;1.10;99.90
4058;DHT22;2044;48.692;9.020;2023-03-08T04:56:45;1.30;99.90
4058;DHT22;2044;48.692;9.020;2023-03-08T04:59:13;1.30;99.90
4058;DHT22;2044;48.692;9.020;2023-03-08T05:01:40;1.30;99.90
4058;DHT22;2044;48.692;9.020;2023-03-08T05:04:09;1.30;99.90
4058;DHT22;2044;48.692;9.020;2023-03-08T05:06:36;1.30;99.90
4058;DHT22;2044;48.692;9.020;2023-03-08T05:09:03;1.30;99.90
4058;DHT22;2044;48.692;9.020;2023-03-08T05:11:30;1.40;99.90
4058;DHT22;2044;48.692;9.020;2023-03-08T05:13:57;1.40;99.90
4058;DHT22;2044;48.692;9.020;2023-03-08T05:16:26;1.40;99.90
4058;DHT22;2044;48.692;9.020;2023-03-08T05:18:52;1.50;99.90
4058;DHT22;2044;48.692;9.020;2023-03-08T05:21:20;1.50;99.90
4058;DHT22;2044;48.692;9.020;2023-03-08T05:23:47;1.50;99.90
4058;DHT22;2044;48.692;9.020;2023-03-08T05:26:16;1.50;99.90
4058;DHT22;2044;48.692;9.020;2023-03-08T05:28:43;1.60;99.90
4058;DHT22;2044;48.692;9.020;2023-03-08T05:31:11;1.70;99.90
4058;DHT22;2044;48.692;9.020;2023-03-08T05:33:40;1.70;99.90
4058;DHT22;2044;48.692;9.020;2023-03-08T05:36:07;1.80;99.90
4058;DHT22;2044;48.692;9.020;2023-03-08T05:38:35;1.80;99.90
4058;DHT22;2044;48.692;9.020;2023-03-08T05:41:05;1.80;99.90
4058;DHT22;2044;48.692;9.020;2023-03-08T05:43:32;1.80;99.90
4058;DHT22;2044;48.692;9.020;2023-03-08T05:46:00;1.90;99.90
4058;DHT22;2044;48.692;9.020;2023-03-08T05:48:28;1.80;99.90
4058;DHT22;2044;48.692;9.020;2023-03-08T05:50:56;1.90;99.90
4058;DHT22;2044;48.692;9.020;2023-03-08T05:55:50;1.90;99.90
4058;DHT22;2044;48.692;9.020;2023-03-08T05:58:19;1.90;99.90
4058;DHT22;2044;48.692;9.020;2023-03-08T06:03:13;1.90;99.90
4058;DHT22;2044;48.692;9.020;2023-03-08T06:05:40;2.00;99.90
4058;DHT22;2044;48.692;9.020;2023-03-08T06:08:08;2.00;99.90
4058;DHT22;2044;48.692;9.020;2023-03-08T06:10:35;2.10;99.90
4058;DHT22;2044;48.692;9.020;2023-03-08T06:13:01;2.10;99.90
4058;DHT22;2044;48.692;9.020;2023-03-08T06:15:28;2.10;99.90
4058;DHT22;2044;48.692;9.020;2023-03-08T06:17:55;2.10;99.90
4058;DHT22;2044;48.692;9.020;2023-03-08T06:20:22;2.10;99.90
4058;DHT22;2044;48.692;9.020;2023-03-08T06:22:48;2.10;99.90
4058;DHT22;2044;48.692;9.020;2023-03-08T06:25:17;2.20;99.90
4058;DHT22;2044;48.692;9.020;2023-03-08T06:27:43;2.20;99.90
4058;DHT22;2044;48.692;9.020;2023-03-08T06:30:11;2.20;99.90
4058;DHT22;2044;48.692;9.020;2023-03-08T06:32:37;2.30;99.90
4058;DHT22;2044;48.692;9.020;2023-03-08T06:35:05;2.30;99.90
4058;DHT22;2044;48.692;9.020;2023-03-08T06:37:32;2.40;99.90
4058;DHT22;2044;48.692;9.020;2023-03-08T06:39:59;2.40;99.90
4058;DHT22;2044;48.692;9.020;2023-03-08T06:42:27;2.40;99.90
4058;DHT22;2044;48.692;9.020;2023-03-08T06:44:54;2.50;99.90
4058;DHT22;2044;48.692;9.020;2023-03-08T06:47:20;2.50;99.90
4058;DHT22;2044;48.692;9.020;2023-03-08T06:49:47;2.50;99.90
4058;DHT22;2044;48.692;9.020;2023-03-08T06:52:15;2.60;99.90
4058;DHT22;2044;48.692;9.020;2023-03-08T06:54:41;2.60;99.90
4058;DHT22;2044;48.692;9.020;2023-03-08T06:57:08;2.60;99.90
4058;DHT22;2044;48.692;9.020;2023-03-08T06:59:36;2.70;99.90
4058;DHT22;2044;48.692;9.020;2023-03-08T07:02:03;2.70;99.90
4058;DHT22;2044;48.692;9.020;2023-03-08T07:04:32;2.70;99.90
4058;DHT22;2044;48.692;9.020;2023-03-08T07:06:58;2.80;99.90
4058;DHT22;2044;48.692;9.020;2023-03-08T07:09:25;2.80;99.90
4058;DHT22;2044;48.692;9.020;2023-03-08T07:11:52;2.80;99.90
4058;DHT22;2044;48.692;9.020;2023-03-08T07:14:19;2.80;99.90
4058;DHT22;2044;48.692;9.020;2023-03-08T07:16:47;2.90;99.90
4058;DHT22;2044;48.692;9.020;2023-03-08T07:19:13;2.90;99.90
4058;DHT22;2044;48.692;9.020;2023-03-08T07:21:40;3.00;99.90
4058;DHT22;2044;48.692;9.020;2023-03-08T07:24:08;3.00;99.90
4058;DHT22;2044;48.692;9.020;2023-03-08T07:26:35;3.00;99.90
4058;DHT22;2044;48.692;9.020;2023-03-08T07:29:02;3.00;99.90
4058;DHT22;2044;48.692;9.020;2023-03-08T07:31:29;3.00;99.90
4058;DHT22;2044;48.692;9.020;2023-03-08T07:33:59;3.00;99.90
4058;DHT22;2044;48.692;9.020;2023-03-08T07:36:26;3.10;99.90
4058;DHT22;2044;48.692;9.020;2023-03-08T07:38:53;3.00;99.90
4058;DHT22;2044;48.692;9.020;2023-03-08T07:41:19;3.00;99.90
4058;DHT22;2044;48.692;9.020;2023-03-08T07:43:46;3.10;99.90
4058;DHT22;2044;48.692;9.020;2023-03-08T07:46:13;3.10;99.90
4058;DHT22;2044;48.692;9.020;2023-03-08T07:48:40;3.10;99.90
4058;DHT22;2044;48.692;9.020;2023-03-08T07:51:08;3.10;99.90
4058;DHT22;2044;48.692;9.020;2023-03-08T07:53:35;3.00;99.90
4058;DHT22;2044;48.692;9.020;2023-03-08T07:56:02;2.90;99.90
4058;DHT22;2044;48.692;9.020;2023-03-08T07:58:29;3.00;99.90
4058;DHT22;2044;48.692;9.020;2023-03-08T08:00:56;3.10;99.90
4058;DHT22;2044;48.692;9.020;2023-03-08T08:03:23;3.10;99.90
4058;DHT22;2044;48.692;9.020;2023-03-08T08:05:49;3.00;99.90
4058;DHT22;2044;48.692;9.020;2023-03-08T08:08:17;3.00;99.90
4058;DHT22;2044;48.692;9.020;2023-03-08T08:10:44;3.00;99.90
4058;DHT22;2044;48.692;9.020;2023-03-08T08:13:10;3.10;99.90
4058;DHT22;2044;48.692;9.020;2023-03-08T08:15:37;3.20;99.90
4058;DHT22;2044;48.692;9.020;2023-03-08T08:18:04;3.10;99.90
4058;DHT22;2044;48.692;9.020;2023-03-08T08:20:31;3.20;99.90
4058;DHT22;2044;48.692;9.020;2023-03-08T08:22:57;3.30;99.90
4058;DHT22;2044;48.692;9.020;2023-03-08T08:25:25;3.40;99.90
4058;DHT22;2044;48.692;9.020;2023-03-08T08:27:52;3.40;99.90
4058;DHT22;2044;48.692;9.020;2023-03-08T08:30:19;3.30;99.90
4058;DHT22;2044;48.692;9.020;2023-03-08T08:32:46;3.30;99.90
4058;DHT22;2044;48.692;9.020;2023-03-08T08:35:13;3.40;99.90
4058;DHT22;2044;48.692;9.020;2023-03-08T08:37:39;3.50;99.90
4058;DHT22;2044;48.692;9.020;2023-03-08T08:40:07;3.80;99.90
4058;DHT22;2044;48.692;9.020;2023-03-08T08:42:36;3.90;99.90
4058;DHT22;2044;48.692;9.020;2023-03-08T08:45:03;3.90;99.90
4058;DHT22;2044;48.692;9.020;2023-03-08T08:47:30;3.90;99.90
4058;DHT22;2044;48.692;9.020;2023-03-08T08:49:57;4.00;99.90
4058;DHT22;2044;48.692;9.020;2023-03-08T08:52:23;4.00;99.90
4058;DHT22;2044;48.692;9.020;2023-03-08T08:54:51;4.00;99.90
4058;DHT22;2044;48.692;9.020;2023-03-08T08:57:18;4.00;99.90
4058;DHT22;2044;48.692;9.020;2023-03-08T08:59:46;4.00;99.90
4058;DHT22;2044;48.692;9.020;2023-03-08T09:02:13;4.10;99.90
4058;DHT22;2044;48.692;9.020;2023-03-08T09:04:40;4.10;99.90
4058;DHT22;2044;48.692;9.020;2023-03-08T09:07:06;4.20;99.90
4058;DHT22;2044;48.692;9.020;2023-03-08T09:09:33;4.00;99.90
4058;DHT22;2044;48.692;9.020;2023-03-08T09:12:00;4.00;99.90
4058;DHT22;2044;48.692;9.020;2023-03-08T09:14:26;4.00;99.90
4058;DHT22;2044;48.692;9.020;2023-03-08T09:16:54;4.10;99.90
4058;DHT22;2044;48.692;9.020;2023-03-08T09:19:21;4.10;99.90
4058;DHT22;2044;48.692;9.020;2023-03-08T09:21:48;4.20;99.90
4058;DHT22;2044;48.692;9.020;2023-03-08T09:24:15;4.30;99.90
4058;DHT22;2044;48.692;9.020;2023-03-08T09:26:42;4.40;99.90
4058;DHT22;2044;48.692;9.020;2023-03-08T09:29:09;4.60;99.90
4058;DHT22;2044;48.692;9.020;2023-03-08T09:31:37;4.60;99.90
4058;DHT22;2044;48.692;9.020;2023-03-08T09:34:05;4.50;99.90
4058;DHT22;2044;48.692;9.020;2023-03-08T09:36:33;4.60;99.90
4058;DHT22;2044;48.692;9.020;2023-03-08T09:39:00;4.70;99.90
4058;DHT22;2044;48.692;9.020;2023-03-08T09:41:44;4.90;99.90
4058;DHT22;2044;48.692;9.020;2023-03-08T09:44:17;5.10;99.90
4058;DHT22;2044;48.692;9.020;2023-03-08T09:46:50;5.10;99.90
4058;DHT22;2044;48.692;9.020;2023-03-08T09:49:26;5.10;99.90
4058;DHT22;2044;48.692;9.020;2023-03-08T09:52:01;5.30;99.90
4058;DHT22;2044;48.692;9.020;2023-03-08T09:54:32;5.50;99.90
4058;DHT22;2044;48.692;9.020;2023-03-08T09:57:05;5.50;99.90
4058;DHT22;2044;48.692;9.020;2023-03-08T09:59:38;5.70;99.90
4058;DHT22;2044;48.692;9.020;2023-03-08T10:02:19;5.80;99.90
4058;DHT22;2044;48.692;9.020;2023-03-08T10:04:53;6.60;99.90
4058;DHT22;2044;48.692;9.020;2023-03-08T10:07:33;5.80;99.90
4058;DHT22;2044;48.692;9.020;2023-03-08T10:13:13;6.00;99.90
4058;DHT22;2044;48.692;9.020;2023-03-08T10:15:46;5.90;99.90
4058;DHT22;2044;48.692;9.020;2023-03-08T10:18:17;5.90;99.90
4058;DHT22;2044;48.692;9.020;2023-03-08T10:20:50;6.10;99.90
4058;DHT22;2044;48.692;9.020;2023-03-08T10:23:19;6.10;99.90
4058;DHT22;2044;48.692;9.020;2023-03-08T10:25:47;6.10;99.90
4058;DHT22;2044;48.692;9.020;2023-03-08T10:28:16;6.20;99.90
4058;DHT22;2044;48.692;9.020;2023-03-08T10:30:45;6.20;99.90
4058;DHT22;2044;48.692;9.020;2023-03-08T10:33:14;6.20;99.90
4058;DHT22;2044;48.692;9.020;2023-03-08T10:35:54;6.40;99.90
4058;DHT22;2044;48.692;9.020;2023-03-08T10:38:23;6.50;99.90
4058;DHT22;2044;48.692;9.020;2023-03-08T10:40:58;6.70;99.90
4058;DHT22;2044;48.692;9.020;2023-03-08T10:43:27;7.00;99.90
4058;DHT22;2044;48.692;9.020;2023-03-08T10:45:59;7.30;99.90
4058;DHT22;2044;48.692;9.020;2023-03-08T10:48:27;7.50;99.90
4058;DHT22;2044;48.692;9.020;2023-03-08T10:50:59;7.70;99.90
4058;DHT22;2044;48.692;9.020;2023-03-08T10:53:27;7.70;99.90
4058;DHT22;2044;48.692;9.020;2023-03-08T10:55:55;7.90;99.90
4058;DHT22;2044;48.692;9.020;2023-03-08T10:58:31;8.10;99.90
4058;DHT22;2044;48.692;9.020;2023-03-08T11:00:59;8.20;99.90
4058;DHT22;2044;48.692;9.020;2023-03-08T11:03:26;8.20;99.90
4058;DHT22;2044;48.692;9.020;2023-03-08T11:05:57;8.40;99.90
4058;DHT22;2044;48.692;9.020;2023-03-08T11:08:28;8.50;99.90
4058;DHT22;2044;48.692;9.020;2023-03-08T11:11:03;8.50;99.90
4058;DHT22;2044;48.692;9.020;2023-03-08T11:13:31;8.60;99.90
4058;DHT22;2044;48.692;9.020;2023-03-08T11:19:09;9.10;99.90
4058;DHT22;2044;48.692;9.020;2023-03-08T11:21:48;9.10;99.90
4058;DHT22;2044;48.692;9.020;2023-03-08T11:24:27;9.30;99.90
4058;DHT22;2044;48.692;9.020;2023-03-08T11:27:08;9.30;99.90
4058;DHT22;2044;48.692;9.020;2023-03-08T11:29:44;9.30;99.90
4058;DHT22;2044;48.692;9.020;2023-03-08T11:32:29;9.40;99.90
4058;DHT22;2044;48.692;9.020;2023-03-08T11:35:08;9.60;99.90
4058;DHT22;2044;48.692;9.020;2023-03-08T11:37:42;9.50;99.90
4058;DHT22;2044;48.692;9.020;2023-03-08T11:40:23;9.60;99.90
4058;DHT22;2044;48.692;9.020;2023-03-08T11:43:06;9.80;99.90
4058;DHT22;2044;48.692;9.020;2023-03-08T11:45:40;10.00;99.90
4058;DHT22;2044;48.692;9.020;2023-03-08T11:48:21;9.70;99.90
4058;DHT22;2044;48.692;9.020;2023-03-08T11:50:52;9.80;99.90
4058;DHT22;2044;48.692;9.020;2023-03-08T11:53:30;9.70;99.90
4058;DHT22;2044;48.692;9.020;2023-03-08T11:56:24;9.70;99.90
4058;DHT22;2044;48.692;9.020;2023-03-08T11:58:57;9.90;99.90
4058;DHT22;2044;48.692;9.020;2023-03-08T12:01:28;10.00;99.90
4058;DHT22;2044;48.692;9.020;2023-03-08T12:03:59;9.80;99.90
4058;DHT22;2044;48.692;9.020;2023-03-08T12:06:29;9.90;99.90
4058;DHT22;2044;48.692;9.020;2023-03-08T12:09:03;9.80;99.90
4058;DHT22;2044;48.692;9.020;2023-03-08T12:11:32;9.80;99.90
4058;DHT22;2044;48.692;9.020;2023-03-08T12:14:04;10.10;99.90
4058;DHT22;2044;48.692;9.020;2023-03-08T12:16:36;10.30;99.90
4058;DHT22;2044;48.692;9.020;2023-03-08T12:19:13;10.40;99.90
4058;DHT22;2044;48.692;9.020;2023-03-08T12:21:46;10.60;99.90
4058;DHT22;2044;48.692;9.020;2023-03-08T12:24:25;10.80;99.90
4058;DHT22;2044;48.692;9.020;2023-03-08T12:26:58;10.80;99.90
4058;DHT22;2044;48.692;9.020;2023-03-08T12:29:31;10.80;99.90
4058;DHT22;2044;48.692;9.020;2023-03-08T12:31:59;10.90;99.90
4058;DHT22;2044;48.692;9.020;2023-03-08T12:34:28;11.10;99.90
4058;DHT22;2044;48.692;9.020;2023-03-08T12:36:55;11.20;99.90
4058;DHT22;2044;48.692;9.020;2023-03-08T12:39:26;11.20;99.90
4058;DHT22;2044;48.692;9.020;2023-03-08T12:41:59;11.30;99.90
4058;DHT22;2044;48.692;9.020;2023-03-08T12:44:28;11.30;99.90
4058;DHT22;2044;48.692;9.020;2023-03-08T12:46:56;11.30;99.90
4058;DHT22;2044;48.692;9.020;2023-03-08T12:49:27;11.30;99.90
4058;DHT22;2044;48.692;9.020;2023-03-08T12:52:01;11.00;99.90
4058;DHT22;2044;48.692;9.020;2023-03-08T12:54:32;10.90;99.90
4058;DHT22;2044;48.692;9.020;2023-03-08T12:57:01;11.10;99.90
4058;DHT22;2044;48.692;9.020;2023-03-08T12:59:34;11.00;99.90
4058;DHT22;2044;48.692;9.020;2023-03-08T13:02:21;11.00;99.90
4058;DHT22;2044;48.692;9.020;2023-03-08T13:04:49;10.90;99.90
4058;DHT22;2044;48.692;9.020;2023-03-08T13:07:28;11.30;99.90
4058;DHT22;2044;48.692;9.020;2023-03-08T13:10:03;11.30;99.90
4058;DHT22;2044;48.692;9.020;2023-03-08T13:12:49;11.40;99.90
4058;DHT22;2044;48.692;9.020;2023-03-08T13:15:22;11.10;99.90
4058;DHT22;2044;48.692;9.020;2023-03-08T13:17:55;10.90;99.90
4058;DHT22;2044;48.692;9.020;2023-03-08T13:20:26;11.20;99.90
4058;DHT22;2044;48.692;9.020;2023-03-08T13:23:00;11.50;99.90
4058;DHT22;2044;48.692;9.020;2023-03-08T13:26:03;11.40;99.90
4058;DHT22;2044;48.692;9.020;2023-03-08T13:28:34;10.90;99.90
4058;DHT22;2044;48.692;9.020;2023-03-08T13:31:02;11.00;99.90
4058;DHT22;2044;48.692;9.020;2023-03-08T13:33:36;10.90;99.90
4058;DHT22;2044;48.692;9.020;2023-03-08T13:36:06;11.10;99.90
4058;DHT22;2044;48.692;9.020;2023-03-08T13:38:40;11.10;99.90
4058;DHT22;2044;48.692;9.020;2023-03-08T13:41:08;11.00;99.90
4058;DHT22;2044;48.692;9.020;2023-03-08T13:43:35;11.00;99.90
4058;DHT22;2044;48.692;9.020;2023-03-08T13:46:04;11.20;99.90
4058;DHT22;2044;48.692;9.020;2023-03-08T13:48:35;11.10;99.90
4058;DHT22;2044;48.692;9.020;2023-03-08T13:51:03;11.00;99.90
4058;DHT22;2044;48.692;9.020;2023-03-08T13:53:33;11.30;99.90
4058;DHT22;2044;48.692;9.020;2023-03-08T13:56:02;11.60;99.90
4058;DHT22;2044;48.692;9.020;2023-03-08T13:58:33;12.00;99.90
4058;DHT22;2044;48.692;9.020;2023-03-08T14:01:02;12.10;99.90
4058;DHT22;2044;48.692;9.020;2023-03-08T14:03:31;12.70;99.90
4058;DHT22;2044;48.692;9.020;2023-03-08T14:05:58;13.00;99.90
4058;DHT22;2044;48.692;9.020;2023-03-08T14:08:26;12.60;99.90
4058;DHT22;2044;48.692;9.020;2023-03-08T14:10:56;12.00;99.90
4058;DHT22;2044;48.692;9.020;2023-03-08T14:13:27;12.00;99.90
4058;DHT22;2044;48.692;9.020;2023-03-08T14:15:57;11.70;99.90
4058;DHT22;2044;48.692;9.020;2023-03-08T14:18:27;11.80;99.90
4058;DHT22;2044;48.692;9.020;2023-03-08T14:21:03;11.70;99.90
4058;DHT22;2044;48.692;9.020;2023-03-08T14:23:32;11.70;99.90
4058;DHT22;2044;48.692;9.020;2023-03-08T14:26:01;11.70;99.90
4058;DHT22;2044;48.692;9.020;2023-03-08T14:28:36;11.80;99.90
4058;DHT22;2044;48.692;9.020;2023-03-08T14:31:22;12.00;99.90
4058;DHT22;2044;48.692;9.020;2023-03-08T14:33:55;11.90;99.90
4058;DHT22;2044;48.692;9.020;2023-03-08T14:36:22;12.10;99.90
4058;DHT22;2044;48.692;9.020;2023-03-08T14:38:49;11.90;99.90
4058;DHT22;2044;48.692;9.020;2023-03-08T14:41:16;12.10;99.90
4058;DHT22;2044;48.692;9.020;2023-03-08T14:43:47;12.00;99.90
4058;DHT22;2044;48.692;9.020;2023-03-08T14:46:17;11.80;99.90
4058;DHT22;2044;48.692;9.020;2023-03-08T14:48:43;11.60;99.90
4058;DHT22;2044;48.692;9.020;2023-03-08T14:51:25;11.50;99.90
4058;DHT22;2044;48.692;9.020;2023-03-08T14:53:57;11.00;99.90
4058;DHT22;2044;48.692;9.020;2023-03-08T14:56:24;11.20;99.90
4058;DHT22;2044;48.692;9.020;2023-03-08T14:58:51;11.30;99.90
4058;DHT22;2044;48.692;9.020;2023-03-08T15:01:27;11.30;99.90
4058;DHT22;2044;48.692;9.020;2023-03-08T15:03:54;11.00;99.90
4058;DHT22;2044;48.692;9.020;2023-03-08T15:06:24;11.00;99.90
4058;DHT22;2044;48.692;9.020;2023-03-08T15:08:51;11.10;99.90
4058;DHT22;2044;48.692;9.020;2023-03-08T15:11:18;10.90;99.90
4058;DHT22;2044;48.692;9.020;2023-03-08T15:13:46;10.80;99.90
4058;DHT22;2044;48.692;9.020;2023-03-08T15:16:13;10.60;99.90
4058;DHT22;2044;48.692;9.020;2023-03-08T15:18:41;10.60;99.90
4058;DHT22;2044;48.692;9.020;2023-03-08T15:21:11;10.60;99.90
4058;DHT22;2044;48.692;9.020;2023-03-08T15:23:39;10.70;99.90
4058;DHT22;2044;48.692;9.020;2023-03-08T15:26:09;10.90;99.90
4058;DHT22;2044;48.692;9.020;2023-03-08T15:28:38;10.90;99.90
4058;DHT22;2044;48.692;9.020;2023-03-08T15:31:05;10.70;99.90
4058;DHT22;2044;48.692;9.020;2023-03-08T15:33:32;10.60;99.90
4058;DHT22;2044;48.692;9.020;2023-03-08T15:36:00;10.60;99.90
4058;DHT22;2044;48.692;9.020;2023-03-08T15:38:27;10.60;99.90
4058;DHT22;2044;48.692;9.020;2023-03-08T15:40:53;10.50;99.90
4058;DHT22;2044;48.692;9.020;2023-03-08T15:43:20;10.60;99.90
4058;DHT22;2044;48.692;9.020;2023-03-08T15:45:47;10.60;99.90
4058;DHT22;2044;48.692;9.020;2023-03-08T15:48:15;10.60;99.90
4058;DHT22;2044;48.692;9.020;2023-03-08T15:50:43;10.60;99.90
4058;DHT22;2044;48.692;9.020;2023-03-08T15:53:11;10.70;99.90
4058;DHT22;2044;48.692;9.020;2023-03-08T15:55:39;10.80;99.90
4058;DHT22;2044;48.692;9.020;2023-03-08T15:58:05;10.80;99.90
4058;DHT22;2044;48.692;9.020;2023-03-08T16:00:32;10.90;99.90
4058;DHT22;2044;48.692;9.020;2023-03-08T16:02:59;10.90;99.90
4058;DHT22;2044;48.692;9.020;2023-03-08T16:05:26;10.90;99.90
4058;DHT22;2044;48.692;9.020;2023-03-08T16:07:53;10.90;99.90
4058;DHT22;2044;48.692;9.020;2023-03-08T16:10:22;11.00;99.90
4058;DHT22;2044;48.692;9.020;2023-03-08T16:12:48;10.90;99.90
4058;DHT22;2044;48.692;9.020;2023-03-08T16:15:15;11.00;99.90
4058;DHT22;2044;48.692;9.020;2023-03-08T16:17:42;10.70;99.90
4058;DHT22;2044;48.692;9.020;2023-03-08T16:20:11;10.50;99.90
4058;DHT22;2044;48.692;9.020;2023-03-08T16:22:38;10.30;99.90
4058;DHT22;2044;48.692;9.020;2023-03-08T16:25:07;10.10;99.90
4058;DHT22;2044;48.692;9.020;2023-03-08T16:27:36;10.10;99.90
4058;DHT22;2044;48.692;9.020;2023-03-08T16:30:03;10.10;99.90
4058;DHT22;2044;48.692;9.020;2023-03-08T16:32:30;10.10;99.90
4058;DHT22;2044;48.692;9.020;2023-03-08T16:34:57;10.10;99.90
4058;DHT22;2044;48.692;9.020;2023-03-08T16:37:25;10.00;99.90